Time;durP1;ratioP1;P1;durP2;ratioP2;P2;SDS_P1;SDS_P2;PMS_P1;PMS_P2;Temp;Humidity;BMP_temperature;BMP_pressure;BME280_temperature;BME280_humidity;BME280_pressure;Samples;Min_cycle;Max_cycle;Signal;HPM_P1;HPM_P2
2021/12/13 00:00:48;;;;;;;365.27;156.45;;;-5.20;99.90;;;-5.07;65.17;99516.59;6050535;23;20023;-81
2021/12/13 00:03:30;;;;;;;384.58;160.80;;;-5.10;99.90;;;-5.04;65.49;99516.31;6076535;23;20019;-81
2021/12/13 00:06:10;;;;;;;384.42;155.35;;;-5.10;99.90;;;-5.02;64.92;99516.16;6073903;23;20236;-81
2021/12/13 00:08:39;;;;;;;391.63;162.63;;;-5.10;99.90;;;-5.02;65.06;99519.63;6050859;23;20023;-81
2021/12/13 00:11:22;;;;;;;363.83;156.73;;;-5.10;99.90;;;-4.99;64.91;99522.94;6039294;23;20019;-80
2021/12/13 00:14:00;;;;;;;352.98;150.55;;;-5.10;99.90;;;-5.10;64.89;99516.94;6049975;23;20034;-81
2021/12/13 00:16:34;;;;;;;344.33;140.20;;;-5.10;99.90;;;-5.18;64.72;99521.34;6018254;23;20378;-81
2021/12/13 00:19:08;;;;;;;313.98;131.73;;;-5.10;99.90;;;-5.15;64.51;99516.56;6052553;23;20354;-81
2021/12/13 00:21:56;;;;;;;301.83;128.38;;;-5.10;99.90;;;-5.22;64.30;99520.81;6053275;23;20046;-81
2021/12/13 00:24:30;;;;;;;309.73;124.05;;;-5.20;99.90;;;-5.17;64.28;99530.94;6054574;23;20018;-81
2021/12/13 00:27:10;;;;;;;308.40;132.13;;;-5.20;99.90;;;-5.19;63.93;99523.16;6053777;23;20094;-81
2021/12/13 00:29:54;;;;;;;310.63;129.18;;;-5.20;99.90;;;-5.20;64.14;99516.19;6077246;23;20102;-81
2021/12/13 00:33:00;;;;;;;306.73;130.93;;;-5.20;99.90;;;-5.24;64.01;99526.28;6053994;23;20366;-81
2021/12/13 00:35:54;;;;;;;297.63;125.75;;;-5.20;99.90;;;-5.24;64.15;99528.09;6015099;23;20030;-80
2021/12/13 00:38:24;;;;;;;346.98;136.23;;;-5.30;99.90;;;-5.26;63.87;99532.69;6072386;23;20019;-80
2021/12/13 00:40:56;;;;;;;317.50;134.88;;;-5.30;99.90;;;-5.26;64.51;99532.69;6043240;23;20019;-81
2021/12/13 00:43:40;;;;;;;301.55;126.63;;;-5.30;99.90;;;-5.31;63.91;99535.78;6052242;23;20048;-81
2021/12/13 00:46:09;;;;;;;309.88;126.78;;;-5.30;99.90;;;-5.34;63.92;99536.13;6018871;23;20022;-81
2021/12/13 00:48:38;;;;;;;287.73;120.35;;;-5.40;99.90;;;-5.34;63.85;99551.13;6043643;23;20014;-80
2021/12/13 00:51:29;;;;;;;294.45;120.53;;;-5.30;99.90;;;-5.41;64.45;99547.44;6044865;23;20070;-81
2021/12/13 00:53:59;;;;;;;292.83;119.10;;;-5.40;99.90;;;-5.41;64.59;99547.44;6044934;23;20101;-80
2021/12/13 00:56:59;;;;;;;279.95;117.20;;;-5.40;99.90;;;-5.49;64.90;99532.34;6077808;23;20329;-81
2021/12/13 00:59:43;;;;;;;288.98;122.50;;;-5.40;99.90;;;-5.46;64.66;99529.41;6091302;23;20022;-81
2021/12/13 01:02:27;;;;;;;312.13;127.53;;;-5.40;99.90;;;-5.43;64.35;99531.72;6043909;23;20026;-81
2021/12/13 01:05:10;;;;;;;287.83;118.22;;;-5.50;99.90;;;-5.48;64.20;99534.00;6067522;23;20098;-81
2021/12/13 01:08:21;;;;;;;276.65;119.45;;;-5.50;99.90;;;-5.57;64.61;99535.75;6080131;23;20039;-81
2021/12/13 01:10:53;;;;;;;285.90;125.88;;;-5.50;99.90;;;-5.53;64.32;99537.09;6048702;23;20078;-81
2021/12/13 01:13:26;;;;;;;294.38;121.80;;;-5.50;99.90;;;-5.57;64.32;99535.75;6075837;23;20015;-81
2021/12/13 01:16:00;;;;;;;303.60;117.22;;;-5.50;99.90;;;-5.69;64.57;99542.25;6043250;23;20030;-81
2021/12/13 01:19:01;;;;;;;290.10;115.38;;;-5.60;99.90;;;-5.71;64.51;99547.69;6076823;23;20021;-81
2021/12/13 01:21:41;;;;;;;257.70;102.67;;;-5.60;99.90;;;-5.69;64.41;99539.59;6058451;23;20035;-81
2021/12/13 01:24:16;;;;;;;262.13;102.63;;;-5.60;99.90;;;-5.71;64.33;99531.00;6056428;23;20038;-80
2021/12/13 01:26:48;;;;;;;271.65;111.13;;;-5.60;99.90;;;-5.72;63.97;99532.81;6053794;23;20015;-81
2021/12/13 01:29:22;;;;;;;275.33;111.68;;;-5.60;99.90;;;-5.69;64.48;99539.59;6043341;23;20023;-81
2021/12/13 01:32:00;;;;;;;292.30;114.40;;;-5.60;99.90;;;-5.70;64.67;99540.56;6067181;23;20070;-81
2021/12/13 01:34:27;;;;;;;284.70;117.32;;;-5.60;99.90;;;-5.70;64.80;99541.44;6054357;23;20634;-81
2021/12/13 01:37:07;;;;;;;311.90;127.82;;;-5.60;99.90;;;-5.72;64.90;99534.63;6043702;23;20126;-81
2021/12/13 01:39:33;;;;;;;320.42;135.40;;;-5.60;99.90;;;-5.69;65.03;99536.97;6056114;23;20023;-81
2021/12/13 01:42:16;;;;;;;333.08;138.88;;;-5.60;99.90;;;-5.67;64.78;99538.47;6021064;23;20041;-81
2021/12/13 01:44:53;;;;;;;329.77;142.48;;;-5.60;99.90;;;-5.62;65.17;99542.47;6044635;23;20023;-81
2021/12/13 01:47:23;;;;;;;329.10;136.82;;;-5.50;99.90;;;-5.60;64.90;99546.59;6054635;23;20344;-80
2021/12/13 01:50:00;;;;;;;328.80;138.02;;;-5.50;99.90;;;-5.59;65.04;99536.88;6044579;23;20458;-81
2021/12/13 01:52:30;;;;;;;317.63;133.27;;;-5.50;99.90;;;-5.66;64.58;99534.00;6031774;23;20019;-81
2021/12/13 01:55:01;;;;;;;299.35;128.88;;;-5.50;99.90;;;-5.57;64.28;99513.75;6044981;23;20074;-80
2021/12/13 01:57:40;;;;;;;299.77;122.13;;;-5.50;99.90;;;-5.56;64.21;99512.78;6056301;23;20026;-80
2021/12/13 02:00:32;;;;;;;297.08;123.30;;;-5.50;99.90;;;-5.57;64.51;99517.25;6060868;23;20488;-81
2021/12/13 02:02:58;;;;;;;306.52;130.43;;;-5.60;99.90;;;-5.56;65.07;99515.44;6049884;23;20057;-81
2021/12/13 02:05:32;;;;;;;311.08;131.70;;;-5.60;99.90;;;-5.58;65.24;99518.22;6046103;23;20015;-80
2021/12/13 02:08:11;;;;;;;292.15;125.10;;;-5.60;99.90;;;-5.62;64.61;99511.59;6045674;23;20019;-81
2021/12/13 02:10:44;;;;;;;302.52;130.10;;;-5.60;99.90;;;-5.70;64.59;99508.84;6046029;23;20042;-80
2021/12/13 02:13:41;;;;;;;292.58;118.90;;;-5.70;99.90;;;-5.75;64.15;99504.06;6055530;23;20105;-81
2021/12/13 02:18:56;;;;;;;260.63;108.38;;;-5.70;99.90;;;-5.74;63.57;99495.13;6049819;23;20022;-80
2021/12/13 02:21:31;;;;;;;249.70;105.38;;;-5.70;99.90;;;-5.78;64.08;99490.28;6032284;23;20099;-81
2021/12/13 02:24:10;;;;;;;268.95;110.50;;;-5.80;99.90;;;-5.82;63.87;99489.78;6055705;23;20035;-80
2021/12/13 02:26:46;;;;;;;276.23;108.50;;;-5.80;99.90;;;-5.82;63.73;99488.94;6055320;23;20042;-81
2021/12/13 02:29:34;;;;;;;251.77;103.95;;;-5.80;99.90;;;-5.85;63.46;99481.31;6046937;23;20332;-80
2021/12/13 02:32:01;;;;;;;276.70;112.72;;;-5.80;99.90;;;-5.85;63.82;99490.09;6048381;23;20054;-80
2021/12/13 02:34:30;;;;;;;299.20;128.85;;;-5.80;99.90;;;-5.92;64.72;99495.13;6045244;23;20015;-81
2021/12/13 02:36:56;;;;;;;310.17;129.95;;;-5.90;99.90;;;-5.93;64.91;99496.13;6043557;23;20023;-81
2021/12/13 02:39:35;;;;;;;325.67;131.18;;;-5.90;99.90;;;-5.92;64.76;99503.06;6067758;23;20046;-81
2021/12/13 02:42:05;;;;;;;294.90;126.75;;;-5.90;99.90;;;-5.94;64.13;99502.41;6051781;23;20418;-81
2021/12/13 02:44:39;;;;;;;318.92;136.30;;;-5.90;99.90;;;-6.01;64.08;99495.22;6051115;23;20029;-80
2021/12/13 02:47:13;;;;;;;310.70;131.95;;;-5.90;99.90;;;-6.01;63.89;99503.97;6076319;23;20434;-81
2021/12/13 02:49:40;;;;;;;308.60;135.02;;;-5.90;99.90;;;-6.01;63.67;99496.06;6042922;23;20671;-81
2021/12/13 02:52:08;;;;;;;306.52;129.93;;;-5.90;99.90;;;-6.02;64.00;99494.41;6044634;23;20022;-81
2021/12/13 02:54:38;;;;;;;305.10;131.10;;;-6.00;99.90;;;-6.04;63.71;99496.34;6044413;23;20371;-80
2021/12/13 02:57:15;;;;;;;322.67;129.50;;;-5.90;99.90;;;-6.04;63.82;99499.00;6054423;23;20074;-81
2021/12/13 02:59:48;;;;;;;301.02;127.07;;;-6.00;99.90;;;-6.07;63.73;99494.03;6054541;23;20146;-81
2021/12/13 03:02:22;;;;;;;321.15;132.20;;;-6.00;99.90;;;-6.09;64.07;99493.34;6045395;23;20046;-81
2021/12/13 03:04:49;;;;;;;318.55;129.95;;;-6.00;99.90;;;-6.03;64.03;99489.25;6054756;23;20025;-81
2021/12/13 03:07:31;;;;;;;326.30;132.68;;;-5.90;99.90;;;-5.97;64.10;99486.03;6046267;23;20015;-81
2021/12/13 03:09:58;;;;;;;325.13;128.50;;;-5.90;99.90;;;-5.95;64.33;99486.72;6055284;23;20094;-81
2021/12/13 03:12:26;;;;;;;311.70;128.05;;;-5.90;99.90;;;-5.95;64.40;99486.72;6046884;23;20015;-81
2021/12/13 03:15:05;;;;;;;296.02;123.93;;;-5.90;99.90;;;-5.99;63.84;99490.63;6046111;23;20098;-81
2021/12/13 03:17:58;;;;;;;320.45;126.03;;;-5.90;99.90;;;-6.05;63.99;99493.88;6056089;23;20076;-81
2021/12/13 03:21:03;;;;;;;288.75;125.20;;;-5.90;99.90;;;-6.03;63.50;99508.59;6045626;23;20106;-81
2021/12/13 03:24:11;;;;;;;280.10;117.25;;;-6.00;99.90;;;-6.08;64.06;99504.72;6072530;23;20038;-81
2021/12/13 03:27:04;;;;;;;269.40;115.78;;;-6.00;99.90;;;-6.02;63.57;99509.44;6082295;23;20015;-81
2021/12/13 03:29:58;;;;;;;281.42;118.68;;;-6.00;99.90;;;-5.98;62.84;99513.41;6068453;23;20019;-81
2021/12/13 03:32:24;;;;;;;272.10;109.55;;;-6.00;99.90;;;-5.98;63.17;99508.13;6054409;23;20019;-81
2021/12/13 03:35:17;;;;;;;232.68;106.70;;;-6.00;99.90;;;-6.03;63.46;99498.03;6043667;23;20046;-81
2021/12/13 03:37:43;;;;;;;246.75;104.70;;;-6.00;99.90;;;-6.06;63.60;99508.88;6045110;23;20015;-81
2021/12/13 03:40:20;;;;;;;258.13;110.10;;;-6.00;99.90;;;-6.00;63.67;99500.38;6068464;23;20206;-81
2021/12/13 03:42:51;;;;;;;262.85;112.28;;;-6.00;99.90;;;-5.99;63.32;99499.38;6054104;23;20015;-81
2021/12/13 03:45:38;;;;;;;267.75;113.65;;;-6.00;99.90;;;-5.97;63.35;99502.72;6052363;23;20050;-81
2021/12/13 03:48:06;;;;;;;283.70;118.13;;;-6.00;99.90;;;-5.97;64.26;99509.81;6048061;23;20015;-81
2021/12/13 03:50:39;;;;;;;268.60;115.97;;;-6.00;99.90;;;-6.00;63.93;99508.31;6043551;23;20159;-81
2021/12/13 03:53:14;;;;;;;249.38;112.00;;;-6.00;99.90;;;-6.01;63.51;99511.06;6029079;23;20082;-81
2021/12/13 03:55:41;;;;;;;263.92;106.53;;;-5.90;99.90;;;-6.00;63.56;99508.31;6053934;23;20097;-81
2021/12/13 03:58:09;;;;;;;278.05;115.88;;;-6.00;99.90;;;-5.97;63.67;99510.63;6044050;23;20025;-81
2021/12/13 04:00:40;;;;;;;273.08;117.93;;;-6.00;99.90;;;-5.96;63.54;99525.50;6043437;23;20103;-81
2021/12/13 04:03:09;;;;;;;287.35;118.75;;;-6.00;99.90;;;-5.91;64.32;99523.19;6052733;23;20051;-81
2021/12/13 04:05:35;;;;;;;280.77;116.85;;;-5.90;99.90;;;-5.91;63.61;99523.19;6019836;23;20046;-81
2021/12/13 04:08:05;;;;;;;268.92;113.03;;;-5.90;99.90;;;-5.96;64.04;99525.50;6020011;23;20015;-81
2021/12/13 04:10:47;;;;;;;267.10;113.28;;;-5.90;99.90;;;-5.98;63.97;99516.91;6043798;23;20025;-80
2021/12/13 04:13:15;;;;;;;259.30;111.13;;;-5.90;99.90;;;-5.94;63.36;99517.44;6053896;23;20014;-81
2021/12/13 04:21:55;;;;;;;245.85;108.18;;;-6.00;99.90;;;-6.04;63.70;99524.59;6068458;23;20015;-81
2021/12/13 04:24:34;;;;;;;260.00;107.88;;;-6.00;99.90;;;-6.04;63.29;99522.78;6068211;23;20666;-81
2021/12/13 04:27:21;;;;;;;277.35;110.93;;;-6.00;99.90;;;-6.06;63.59;99526.53;6055426;23;20113;-81
2021/12/13 04:29:48;;;;;;;265.33;108.30;;;-6.00;99.90;;;-6.06;63.20;99530.00;6077639;23;20022;-81
2021/12/13 04:32:44;;;;;;;269.42;112.72;;;-6.10;99.90;;;-6.07;63.31;99528.38;6067868;23;20728;-81
2021/12/13 04:35:11;;;;;;;276.02;121.53;;;-6.00;99.90;;;-6.10;63.68;99536.59;6018500;23;20038;-81
2021/12/13 04:37:47;;;;;;;275.08;115.32;;;-6.00;99.90;;;-6.05;63.99;99536.16;6043434;23;20022;-80
2021/12/13 04:40:21;;;;;;;283.85;115.35;;;-6.10;99.90;;;-6.04;63.62;99527.22;6054044;23;20015;-81
2021/12/13 04:42:54;;;;;;;286.40;124.50;;;-6.00;99.90;;;-6.04;63.72;99529.88;6052651;23;20014;-80
2021/12/13 04:45:23;;;;;;;265.70;115.63;;;-6.00;99.90;;;-6.05;63.86;99523.75;6052137;23;20110;-80
2021/12/13 04:48:13;;;;;;;260.35;111.60;;;-6.00;99.90;;;-6.05;63.79;99526.41;6044707;23;20075;-80
2021/12/13 04:51:10;;;;;;;273.15;113.35;;;-6.00;99.90;;;-6.08;63.34;99524.06;6052273;23;20449;-80
2021/12/13 04:53:44;;;;;;;260.52;114.38;;;-6.00;99.90;;;-6.03;63.62;99519.16;6050020;23;20023;-80
2021/12/13 04:56:13;;;;;;;259.42;108.68;;;-6.00;99.90;;;-6.04;63.64;99520.13;6046957;23;20029;-79
2021/12/13 04:58:41;;;;;;;256.55;107.63;;;-6.00;99.90;;;-6.09;63.34;99519.75;6017217;23;20081;-80
2021/12/13 05:01:08;;;;;;;260.58;107.85;;;-6.10;99.90;;;-6.07;62.88;99522.25;6039569;23;20018;-80
2021/12/13 05:03:40;;;;;;;249.20;108.35;;;-6.10;99.90;;;-6.09;63.47;99516.28;6039781;23;20411;-81
2021/12/13 05:06:09;;;;;;;281.15;114.22;;;-6.10;99.90;;;-6.09;63.51;99519.75;6040017;23;20510;-81
2021/12/13 05:08:37;;;;;;;256.73;109.22;;;-6.10;99.90;;;-6.11;64.00;99513.78;6039609;23;20023;-81
2021/12/13 05:11:06;;;;;;;255.88;105.50;;;-6.10;99.90;;;-6.09;63.90;99516.28;6038528;23;20018;-81
2021/12/13 05:13:37;;;;;;;254.95;106.40;;;-6.10;99.90;;;-6.11;64.45;99519.06;6038711;23;20015;-81
2021/12/13 05:16:09;;;;;;;254.50;106.90;;;-6.10;99.90;;;-6.11;64.97;99521.69;6048171;23;20022;-81
2021/12/13 05:18:54;;;;;;;233.10;96.63;;;-6.10;99.90;;;-6.13;64.74;99516.59;6038129;23;20027;-81
2021/12/13 05:21:33;;;;;;;238.13;103.47;;;-6.10;99.90;;;-6.18;64.80;99521.47;6046737;23;20019;-82
2021/12/13 05:24:03;;;;;;;279.20;116.15;;;-6.10;99.90;;;-6.19;64.89;99518.97;6023816;23;20097;-81
2021/12/13 05:26:34;;;;;;;300.83;126.53;;;-6.10;99.90;;;-6.19;64.87;99521.63;6037120;23;20019;-81
2021/12/13 05:29:01;;;;;;;308.15;125.38;;;-6.10;99.90;;;-6.21;65.14;99520.94;6046003;23;20027;-81
2021/12/13 05:31:28;;;;;;;292.02;120.75;;;-6.10;99.90;;;-6.22;64.92;99520.09;6059321;23;20019;-81
2021/12/13 05:34:04;;;;;;;284.17;123.88;;;-6.10;99.90;;;-6.26;65.23;99534.56;6010976;23;20019;-80
2021/12/13 05:36:33;;;;;;;275.88;124.72;;;-6.20;99.90;;;-6.24;65.41;99539.72;6039344;23;20684;-80
2021/12/13 05:39:13;;;;;;;273.63;118.38;;;-6.10;99.90;;;-6.19;64.63;99535.66;6038046;23;20091;-80
2021/12/13 05:41:39;;;;;;;265.70;116.50;;;-6.10;99.90;;;-6.04;64.58;99538.63;6052574;23;20526;-79
2021/12/13 05:44:11;;;;;;;266.67;115.13;;;-6.10;99.90;;;-5.95;64.38;99547.47;6042906;23;20019;-79
2021/12/13 05:46:46;;;;;;;283.88;118.72;;;-6.00;99.90;;;-5.89;63.76;99554.75;6043002;23;20053;-82
2021/12/13 05:49:28;;;;;;;263.67;116.25;;;-6.00;99.90;;;-5.98;63.76;99553.03;6053829;23;20098;-79
2021/12/13 05:52:10;;;;;;;272.27;114.25;;;-6.00;99.90;;;-5.97;63.63;99555.53;6053474;23;20050;-79
2021/12/13 05:54:42;;;;;;;288.48;121.75;;;-5.90;99.90;;;-6.01;63.47;99556.81;6055363;23;20042;-79
2021/12/13 05:57:43;;;;;;;276.10;120.20;;;-5.90;99.90;;;-6.04;62.97;99564.22;6029936;23;20030;-79
2021/12/13 06:00:30;;;;;;;256.60;116.95;;;-5.90;99.90;;;-6.06;63.22;99566.16;6011182;23;20050;-79
2021/12/13 06:03:02;;;;;;;272.75;120.50;;;-6.00;99.90;;;-6.04;63.31;99566.84;6051663;23;20070;-79
2021/12/13 06:05:33;;;;;;;284.00;123.88;;;-6.00;99.90;;;-6.10;63.28;99570.94;6089056;23;20130;-79
2021/12/13 06:08:09;;;;;;;282.90;123.20;;;-6.00;99.90;;;-6.13;63.22;99571.19;6065125;23;20019;-79
2021/12/13 06:10:52;;;;;;;282.35;118.68;;;-6.00;99.90;;;-6.12;63.09;99578.97;6051608;23;20027;-79
2021/12/13 06:13:42;;;;;;;273.98;117.75;;;-6.00;99.90;;;-6.08;63.08;99568.13;6027723;23;20018;-79
2021/12/13 06:16:09;;;;;;;265.10;118.07;;;-6.00;99.90;;;-6.06;63.20;99574.91;6098791;23;20406;-79
2021/12/13 06:18:55;;;;;;;280.48;123.05;;;-5.90;99.90;;;-6.03;62.80;99572.00;6041584;23;20015;-79
2021/12/13 06:21:47;;;;;;;284.90;120.28;;;-5.90;99.90;;;-6.05;63.07;99575.78;6080198;23;20037;-78
2021/12/13 06:24:14;;;;;;;271.65;122.15;;;-5.90;99.90;;;-6.09;63.69;99575.22;6065733;23;20097;-79
2021/12/13 06:26:40;;;;;;;260.58;115.82;;;-6.00;99.90;;;-6.14;63.27;99580.94;6026197;23;20019;-79
2021/12/13 06:29:07;;;;;;;273.42;115.38;;;-5.90;99.90;;;-6.12;63.32;99586.09;6047970;23;20015;-78
2021/12/13 06:31:44;;;;;;;262.40;116.88;;;-5.90;99.90;;;-6.07;63.17;99593.56;6045962;23;20031;-79
2021/12/13 06:34:16;;;;;;;279.20;118.53;;;-5.90;99.90;;;-6.03;63.04;99598.41;6070577;23;20102;-78
2021/12/13 06:36:49;;;;;;;;;;;-5.90;99.90;;;-6.02;63.18;99602.72;6037126;23;20022;-78
2021/12/13 06:39:22;;;;;;;274.55;117.93;;;-5.90;99.90;;;-6.01;63.61;99595.59;6038101;23;19922;-79
2021/12/13 06:42:00;;;;;;;277.55;119.97;;;-5.90;99.90;;;-5.97;63.56;99595.16;6050175;23;20081;-79
2021/12/13 06:44:29;;;;;;;280.20;115.38;;;-5.90;99.90;;;-5.92;63.96;99598.16;6025803;23;20106;-79
2021/12/13 06:47:15;;;;;;;281.77;117.63;;;-5.90;99.90;;;-5.93;63.77;99604.44;6064139;23;20019;-79
2021/12/13 06:49:45;;;;;;;283.05;117.95;;;-5.80;99.90;;;-5.95;64.17;99600.31;6072842;23;20466;-79
2021/12/13 06:52:14;;;;;;;268.05;116.80;;;-5.70;99.90;;;-5.97;64.00;99605.75;6039091;23;20556;-79
2021/12/13 06:54:48;;;;;;;275.05;115.10;;;-5.70;99.90;;;-5.93;64.55;99608.88;6087689;23;20363;-79
2021/12/13 06:57:49;;;;;;;260.60;111.28;;;-5.70;99.90;;;-5.76;63.86;99609.91;6061194;23;20023;-79
2021/12/13 07:00:21;;;;;;;250.00;106.87;;;-5.60;99.90;;;-5.70;63.81;99611.94;6046309;23;20031;-81
2021/12/13 07:02:51;;;;;;;259.08;114.88;;;-5.60;99.90;;;-5.62;63.39;99612.03;6083414;23;20053;-79
2021/12/13 07:05:41;;;;;;;271.80;118.38;;;-5.50;99.90;;;-5.58;63.60;99612.56;6060555;23;20046;-79
2021/12/13 07:08:22;;;;;;;274.90;112.93;;;-5.50;99.90;;;-5.55;63.64;99614.91;6048984;23;20102;-79
2021/12/13 07:11:00;;;;;;;263.10;112.97;;;-5.40;99.90;;;-5.46;63.42;99627.22;6070207;23;20022;-79
2021/12/13 07:13:41;;;;;;;259.42;116.70;;;-5.40;99.90;;;-5.39;63.39;99630.94;6050138;23;20034;-79
2021/12/13 07:16:12;;;;;;;263.42;112.13;;;-5.30;99.90;;;-5.34;63.50;99625.16;6050258;23;20030;-79
2021/12/13 07:18:45;;;;;;;289.60;123.97;;;-5.20;99.90;;;-5.27;63.07;99634.97;6073530;23;20138;-78
2021/12/13 07:21:28;;;;;;;275.30;116.90;;;-5.10;99.90;;;-5.18;63.06;99632.44;6063480;23;20014;-79
2021/12/13 07:24:08;;;;;;;269.80;118.30;;;-5.10;99.90;;;-5.05;63.03;99635.53;6050224;23;20065;-79
2021/12/13 07:26:40;;;;;;;269.80;119.25;;;-4.90;99.90;;;-5.03;63.82;99639.69;6052255;23;20018;-79
2021/12/13 07:29:27;;;;;;;277.27;117.57;;;-4.80;99.90;;;-4.89;63.79;99650.69;6064563;23;20026;-79
2021/12/13 07:32:18;;;;;;;272.83;116.25;;;-4.70;99.90;;;-4.73;63.13;99647.34;6070930;23;20022;-79
2021/12/13 07:35:10;;;;;;;276.08;117.82;;;-4.60;99.90;;;-4.69;63.29;99654.81;6070867;23;20026;-79
2021/12/13 07:37:46;;;;;;;266.98;116.93;;;-4.50;99.90;;;-4.60;63.00;99661.84;6066535;23;20034;-79
2021/12/13 07:40:27;;;;;;;264.40;117.97;;;-4.40;99.90;;;-4.48;63.00;99669.53;6061025;23;20050;-79
2021/12/13 07:43:39;;;;;;;277.60;119.65;;;-4.30;99.90;;;-4.39;63.28;99668.59;6084993;23;20061;-79
2021/12/13 07:46:19;;;;;;;290.90;119.43;;;-4.20;99.90;;;-4.28;63.08;99675.44;6061470;23;20097;-79
2021/12/13 07:48:45;;;;;;;276.83;122.00;;;-4.10;99.90;;;-4.12;62.92;99674.69;6071568;23;20030;-78
2021/12/13 07:51:18;;;;;;;271.55;116.15;;;-4.00;99.90;;;-4.04;63.34;99666.81;6084490;23;20022;-78
2021/12/13 07:53:59;;;;;;;275.40;119.10;;;-3.90;99.90;;;-4.03;63.90;99676.41;6085019;23;20086;-78
2021/12/13 07:56:39;;;;;;;277.42;119.03;;;-3.70;99.90;;;-3.99;63.48;99675.13;6058739;23;20118;-78
2021/12/13 07:59:08;;;;;;;256.48;110.05;;;-3.70;99.90;;;-3.89;63.69;99677.63;6070316;23;20057;-78
2021/12/13 08:02:05;;;;;;;274.70;119.82;;;-3.60;99.90;;;-3.73;63.33;99675.06;6061055;23;20023;-78
2021/12/13 08:05:01;;;;;;;265.88;113.75;;;-3.50;99.90;;;-3.57;63.64;99679.56;6051989;23;20050;-78
2021/12/13 08:07:39;;;;;;;284.85;120.05;;;-3.50;99.90;;;-3.43;63.05;99671.00;6028761;23;20029;-78
2021/12/13 08:10:13;;;;;;;270.17;118.07;;;-3.40;99.90;;;-3.34;63.02;99670.00;6050270;23;20085;-79
2021/12/13 08:12:43;;;;;;;538.55;124.05;;;-3.30;99.90;;;-3.27;63.72;99671.03;6048603;23;20053;-78
2021/12/13 08:15:18;;;;;;;249.73;111.80;;;-3.20;99.90;;;-3.28;63.84;99676.53;6048657;23;20364;-78
2021/12/13 08:17:48;;;;;;;236.05;106.47;;;-3.10;99.90;;;-3.23;64.51;99676.00;6049144;23;20462;-78
2021/12/13 08:20:29;;;;;;;240.68;100.57;;;-3.00;99.90;;;-3.22;64.22;99673.19;6074246;23;20422;-78
2021/12/13 08:22:56;;;;;;;240.10;100.68;;;-2.90;99.90;;;-3.12;64.41;99673.88;6072263;23;20070;-80
2021/12/13 08:25:26;;;;;;;261.80;102.53;;;-2.80;99.90;;;-3.07;64.24;99671.56;6037051;23;20029;-78
2021/12/13 08:28:04;;;;;;;221.95;94.68;;;-2.80;99.90;;;-2.82;63.59;99674.25;6037858;23;20091;-80
2021/12/13 08:30:51;;;;;;;212.98;92.50;;;-2.60;99.90;;;-2.69;63.78;99681.72;6049369;23;20185;-79
2021/12/13 08:33:43;;;;;;;232.40;99.80;;;-2.50;99.90;;;-2.57;63.92;99684.84;6065340;23;20023;-78
2021/12/13 08:36:40;;;;;;;276.75;110.57;;;-2.50;99.90;;;-2.46;63.33;99684.53;6039660;23;20090;-79
2021/12/13 08:39:36;;;;;;;271.92;119.28;;;-2.40;99.90;;;-2.39;63.35;99701.44;6061306;23;20495;-79
2021/12/13 08:42:17;;;;;;;335.90;144.40;;;-2.30;99.90;;;-2.26;63.14;99693.78;6041010;23;20046;-79
2021/12/13 08:44:56;;;;;;;244.18;109.63;;;-2.20;99.90;;;-2.14;63.17;99699.56;6039747;23;20019;-79
2021/12/13 08:47:31;;;;;;;243.25;102.25;;;-2.10;99.90;;;-2.08;63.48;99696.25;6050931;23;20022;-79
2021/12/13 08:50:03;;;;;;;220.57;97.85;;;-2.00;99.90;;;-2.01;63.05;99691.91;6051015;23;20042;-79
2021/12/13 08:52:33;;;;;;;235.60;99.32;;;-1.90;99.90;;;-1.95;63.34;99692.22;6028273;23;20454;-79
2021/12/13 08:55:11;;;;;;;258.65;106.53;;;-1.80;99.90;;;-1.90;63.47;99687.22;6074457;23;20097;-79
2021/12/13 08:58:18;;;;;;;224.85;96.63;;;-1.80;99.90;;;-1.79;63.64;99694.81;6099576;23;20058;-79
2021/12/13 09:01:00;;;;;;;225.20;95.10;;;-1.70;99.90;;;-1.67;63.40;99690.78;6065605;23;20034;-78
2021/12/13 09:03:39;;;;;;;209.57;91.53;;;-1.60;99.90;;;-1.54;63.67;99685.72;6075719;23;20056;-78
2021/12/13 09:06:17;;;;;;;228.85;95.70;;;-1.50;99.90;;;-1.43;63.19;99686.34;6042676;23;20459;-80
2021/12/13 09:09:04;;;;;;;213.63;91.10;;;-1.30;99.90;;;-1.39;63.34;99677.03;6089720;23;20022;-79
2021/12/13 09:12:01;;;;;;;196.63;86.70;;;-1.30;99.90;;;-1.35;63.66;99679.16;6078804;23;20432;-78
2021/12/13 09:14:50;;;;;;;210.07;84.80;;;-1.20;99.90;;;-1.27;63.81;99680.94;6075750;23;20046;-79
2021/12/13 09:17:27;;;;;;;182.93;77.90;;;-1.10;99.90;;;-1.05;63.49;99673.97;6051351;23;20086;-78
2021/12/13 09:20:12;;;;;;;172.27;73.97;;;-1.00;99.90;;;-0.94;63.58;99672.72;6040545;23;20379;-78
2021/12/13 09:23:04;;;;;;;178.52;77.18;;;-0.80;99.90;;;-0.82;63.34;99673.97;6072640;23;20413;-78
2021/12/13 09:26:02;;;;;;;194.98;83.35;;;-0.80;99.90;;;-0.69;63.54;99679.53;6040699;23;20061;-78
2021/12/13 09:28:32;;;;;;;190.15;84.38;;;-0.60;99.90;;;-0.62;64.19;99673.47;6068007;23;20074;-78
2021/12/13 09:31:32;;;;;;;196.35;77.22;;;-0.50;99.90;;;-0.59;64.00;99663.28;6025311;23;20043;-78
2021/12/13 09:34:15;;;;;;;179.00;78.20;;;-0.40;99.90;;;-0.43;63.98;99667.66;6048149;23;20027;-78
2021/12/13 09:36:44;;;;;;;160.25;75.90;;;-0.30;99.90;;;-0.34;64.26;99666.56;6040567;23;20031;-78
2021/12/13 09:39:30;;;;;;;174.68;78.45;;;-0.30;99.90;;;-0.25;63.71;99665.47;6038246;23;20019;-78
2021/12/13 09:42:07;;;;;;;182.48;77.13;;;-0.10;99.90;;;-0.12;63.63;99664.84;6037865;23;20023;-78
2021/12/13 09:44:49;;;;;;;173.65;79.07;;;0.00;99.90;;;-0.02;64.21;99659.22;6070405;23;20018;-78
2021/12/13 09:47:36;;;;;;;164.70;76.65;;;0.10;99.90;;;0.15;64.01;99655.38;6071510;23;20383;-78
2021/12/13 09:50:16;;;;;;;169.45;77.95;;;0.20;99.90;;;0.34;64.09;99650.47;6048004;23;20026;-78
2021/12/13 09:53:05;;;;;;;176.05;78.38;;;0.40;99.90;;;0.41;63.92;99654.06;6071187;23;20019;-78
2021/12/13 09:55:41;;;;;;;180.98;77.82;;;0.50;99.90;;;0.55;63.69;99652.34;6038316;23;20431;-78
2021/12/13 09:58:18;;;;;;;170.30;77.35;;;0.50;99.90;;;0.57;63.46;99647.66;6048139;23;20062;-78
2021/12/13 10:00:49;;;;;;;163.77;76.38;;;0.60;99.90;;;0.54;63.58;99643.53;6070652;23;20097;-78
2021/12/13 10:03:22;;;;;;;169.80;76.00;;;0.60;99.90;;;0.56;63.75;99641.50;6023800;23;20394;-78
2021/12/13 10:05:52;;;;;;;186.05;79.55;;;0.70;99.90;;;0.65;63.69;99639.53;6047000;23;20150;-78
2021/12/13 10:08:28;;;;;;;175.02;78.65;;;0.70;99.90;;;0.70;63.62;99646.97;6037299;23;20023;-78
2021/12/13 10:11:05;;;;;;;171.57;77.28;;;0.80;99.90;;;0.76;63.78;99640.88;6070595;23;20688;-78
2021/12/13 10:13:36;;;;;;;170.77;75.38;;;0.80;99.90;;;0.80;63.98;99644.81;6047763;23;20019;-78
2021/12/13 10:16:12;;;;;;;178.40;81.05;;;0.90;99.90;;;0.80;64.13;99650.16;6038866;23;20097;-78
2021/12/13 10:18:40;;;;;;;212.40;90.45;;;0.90;99.90;;;0.79;63.95;99651.16;6050376;23;20042;-77
2021/12/13 10:21:32;;;;;;;259.98;98.78;;;1.00;99.90;;;0.86;64.10;99646.72;6016564;23;20379;-78
2021/12/13 10:24:16;;;;;;;237.10;102.35;;;1.00;99.90;;;0.92;64.42;99643.31;6053075;23;20022;-78
2021/12/13 10:26:43;;;;;;;211.95;97.78;;;1.10;99.90;;;1.03;64.47;99642.78;6073029;23;20051;-78
2021/12/13 10:29:11;;;;;;;225.27;99.45;;;1.20;99.90;;;1.13;64.07;99638.97;6015797;23;20041;-78
2021/12/13 10:31:47;;;;;;;234.25;101.38;;;1.20;99.90;;;1.19;63.80;99646.22;6039540;23;20015;-78
2021/12/13 10:34:24;;;;;;;232.02;101.60;;;1.30;99.90;;;1.23;64.09;99648.31;6072201;23;20019;-78
2021/12/13 10:37:04;;;;;;;235.98;104.07;;;1.40;99.90;;;1.37;63.53;99641.22;6065099;23;20026;-78
2021/12/13 10:39:53;;;;;;;217.85;98.30;;;1.40;99.90;;;1.41;62.66;99639.03;6048052;23;20093;-78
2021/12/13 10:42:33;;;;;;;217.95;101.28;;;1.50;99.90;;;1.47;63.23;99643.56;6023292;23;20030;-78
2021/12/13 10:45:01;;;;;;;250.00;102.55;;;1.60;99.90;;;1.45;63.02;99643.78;6048068;23;20029;-78
2021/12/13 10:47:40;;;;;;;224.18;99.53;;;1.60;99.90;;;1.50;63.58;99636.00;6037343;23;20075;-78